createdAt,value
2023-03-22T00:02:18.620Z,17.58
2023-03-22T00:04:46.936Z,12.30
2023-03-22T00:07:16.496Z,10.73
2023-03-22T00:09:44.984Z,15.38
2023-03-22T00:12:13.175Z,12.70
2023-03-22T00:14:41.474Z,12.68
2023-03-22T00:17:09.713Z,20.30
2023-03-22T00:19:38.193Z,13.75
2023-03-22T00:22:06.765Z,17.70
2023-03-22T00:24:36.378Z,16.65
2023-03-22T00:27:04.735Z,17.52
2023-03-22T00:29:32.958Z,14.40
2023-03-22T00:32:01.243Z,16.88
2023-03-22T00:34:32.184Z,11.05
2023-03-22T00:37:00.636Z,12.85
2023-03-22T00:39:28.884Z,17.05
2023-03-22T00:41:58.499Z,13.05
2023-03-22T00:44:26.983Z,17.90
2023-03-22T00:46:55.428Z,17.60
2023-03-22T00:49:25.681Z,16.73
2023-03-22T00:51:53.990Z,13.57
2023-03-22T00:54:22.245Z,19.35
2023-03-22T00:56:50.864Z,21.75
2023-03-22T00:59:20.529Z,38.13
2023-03-22T01:01:48.791Z,25.20
2023-03-22T01:04:18.113Z,57.72
2023-03-22T01:06:47.165Z,28.20
2023-03-22T01:09:15.507Z,45.47
2023-03-22T01:11:44.307Z,31.73
2023-03-22T01:14:13.918Z,35.92
2023-03-22T01:16:43.747Z,36.45
2023-03-22T01:19:12.108Z,41.10
2023-03-22T01:21:40.371Z,34.25
2023-03-22T01:24:09.261Z,26.38
2023-03-22T01:26:38.862Z,20.60
2023-03-22T01:29:07.064Z,21.48
2023-03-22T01:31:35.336Z,13.65
2023-03-22T01:34:05.211Z,17.60
2023-03-22T01:36:33.440Z,16.85
2023-03-22T01:39:01.666Z,32.80
2023-03-22T01:41:29.981Z,14.07
2023-03-22T01:44:12.271Z,13.10
2023-03-22T01:46:41.947Z,15.95
2023-03-22T01:49:16.100Z,13.97
2023-03-22T01:51:45.933Z,15.63
2023-03-22T01:54:18.273Z,18.08
2023-03-22T01:56:46.868Z,14.40
2023-03-22T01:59:16.124Z,24.98
2023-03-22T02:01:47.085Z,10.48
2023-03-22T02:04:19.960Z,19.27
2023-03-22T02:06:48.601Z,14.35
2023-03-22T02:09:21.919Z,21.60
2023-03-22T02:11:52.437Z,15.20
2023-03-22T02:14:42.770Z,12.73
2023-03-22T02:17:20.916Z,22.42
2023-03-22T02:20:22.731Z,11.32
2023-03-22T02:23:19.358Z,9.80
2023-03-22T02:26:27.226Z,10.68
2023-03-22T02:28:57.437Z,10.43
2023-03-22T02:32:10.206Z,12.73
2023-03-22T02:35:35.797Z,10.02
2023-03-22T02:38:25.204Z,10.75
2023-03-22T02:40:57.935Z,8.48
2023-03-22T02:43:34.286Z,10.32
2023-03-22T02:46:06.844Z,8.02
2023-03-22T02:48:39.484Z,11.00
2023-03-22T02:51:11.144Z,10.73
2023-03-22T02:53:43.210Z,9.10
2023-03-22T02:56:14.405Z,8.10
2023-03-22T02:58:46.604Z,9.18
2023-03-22T03:01:20.017Z,10.35
2023-03-22T03:03:50.504Z,7.57
2023-03-22T03:06:21.301Z,9.18
2023-03-22T03:08:51.840Z,10.18
2023-03-22T03:11:22.292Z,9.48
2023-03-22T03:13:50.809Z,7.60
2023-03-22T03:16:22.052Z,10.75
2023-03-22T03:18:54.000Z,7.88
2023-03-22T03:21:30.046Z,9.80
2023-03-22T03:24:07.051Z,11.18
2023-03-22T03:26:40.608Z,8.07
2023-03-22T03:29:13.112Z,8.68
2023-03-22T03:31:44.650Z,10.30
2023-03-22T03:34:17.761Z,8.27
2023-03-22T03:36:50.796Z,11.38
2023-03-22T03:39:19.806Z,8.63
2023-03-22T03:41:51.270Z,8.43
2023-03-22T03:44:20.159Z,7.57
2023-03-22T03:46:49.177Z,9.68
2023-03-22T03:49:17.770Z,10.98
2023-03-22T03:51:48.260Z,7.10
2023-03-22T03:54:16.552Z,7.60
2023-03-22T03:56:44.831Z,10.52
2023-03-22T03:59:15.843Z,8.43
2023-03-22T04:01:50.406Z,8.77
2023-03-22T04:04:19.485Z,8.95
2023-03-22T04:06:47.782Z,12.43
2023-03-22T04:09:16.191Z,8.38
2023-03-22T04:11:44.434Z,9.50
2023-03-22T04:14:14.027Z,8.73
2023-03-22T04:16:42.371Z,8.77
2023-03-22T04:19:11.052Z,9.23
2023-03-22T04:21:39.353Z,10.20
2023-03-22T04:24:08.364Z,9.65
2023-03-22T04:26:36.657Z,11.65
2023-03-22T04:29:05.479Z,9.80
2023-03-22T04:31:35.735Z,9.85
2023-03-22T04:34:05.758Z,7.75
2023-03-22T04:36:36.389Z,9.48
2023-03-22T04:41:34.348Z,7.25
2023-03-22T04:44:03.697Z,10.82
2023-03-22T04:46:32.992Z,9.98
2023-03-22T04:49:03.376Z,8.82
2023-03-22T04:51:32.142Z,10.23
2023-03-22T04:54:00.594Z,11.68
2023-03-22T04:56:28.879Z,11.07
2023-03-22T04:58:57.152Z,11.13
2023-03-22T05:01:25.465Z,12.40
2023-03-22T05:03:53.754Z,11.77
2023-03-22T05:06:23.347Z,14.57
2023-03-22T05:08:51.593Z,12.88
2023-03-22T05:11:20.351Z,14.27
2023-03-22T05:13:48.623Z,13.95
2023-03-22T05:16:16.948Z,15.70
2023-03-22T05:18:45.556Z,13.77
2023-03-22T05:21:15.405Z,11.02
2023-03-22T05:23:46.277Z,12.57
2023-03-22T05:26:15.832Z,13.88
2023-03-22T05:28:44.294Z,13.80
2023-03-22T05:31:14.783Z,12.32
2023-03-22T05:33:43.240Z,13.68
2023-03-22T05:36:12.429Z,13.52
2023-03-22T05:38:41.337Z,18.10
2023-03-22T05:41:11.046Z,10.07
2023-03-22T05:43:39.573Z,10.23
2023-03-22T05:46:08.492Z,9.55
2023-03-22T05:48:37.034Z,9.55
2023-03-22T05:51:07.317Z,10.00
2023-03-22T05:53:36.116Z,9.07
2023-03-22T05:56:04.739Z,11.40
2023-03-22T05:58:35.089Z,9.65
2023-03-22T06:01:07.252Z,9.13
2023-03-22T06:03:35.945Z,8.10
2023-03-22T06:06:06.732Z,12.50
2023-03-22T06:08:35.259Z,11.15
2023-03-22T06:11:03.552Z,9.88
2023-03-22T06:13:32.006Z,13.32
2023-03-22T06:16:02.450Z,12.02
2023-03-22T06:18:31.328Z,11.93
2023-03-22T06:20:59.666Z,9.40
2023-03-22T06:23:28.091Z,11.07
2023-03-22T06:25:56.536Z,9.75
2023-03-22T06:28:29.510Z,10.57
2023-03-22T06:30:57.925Z,8.43
2023-03-22T06:33:27.529Z,9.88
2023-03-22T06:35:55.818Z,10.25
2023-03-22T06:38:24.103Z,14.27
2023-03-22T06:40:52.385Z,11.00
2023-03-22T06:43:20.711Z,13.00
2023-03-22T06:45:49.482Z,7.45
2023-03-22T06:48:17.793Z,8.32
2023-03-22T06:50:47.426Z,11.10
2023-03-22T06:53:15.740Z,11.57
2023-03-22T06:55:43.963Z,10.68
2023-03-22T06:58:12.567Z,6.85
2023-03-22T07:00:41.561Z,8.50
2023-03-22T07:03:10.077Z,11.27
2023-03-22T07:05:38.332Z,9.18
2023-03-22T07:08:08.172Z,8.35
2023-03-22T07:10:36.483Z,7.20
2023-03-22T07:13:04.750Z,7.05
2023-03-22T07:15:34.454Z,8.52
2023-03-22T07:18:03.219Z,9.48
2023-03-22T07:20:32.952Z,8.13
2023-03-22T07:23:01.196Z,8.30
2023-03-22T07:25:30.948Z,5.45
2023-03-22T07:28:00.500Z,7.50
2023-03-22T07:30:28.746Z,8.95
2023-03-22T07:32:56.971Z,7.32
2023-03-22T07:35:26.966Z,8.32
2023-03-22T07:37:55.328Z,6.95
2023-03-22T07:40:23.745Z,8.18
2023-03-22T07:42:54.848Z,7.13
2023-03-22T07:45:24.335Z,13.75
2023-03-22T07:47:52.649Z,6.45
2023-03-22T07:50:21.023Z,6.35
2023-03-22T07:52:49.465Z,7.35
2023-03-22T07:55:17.829Z,7.07
2023-03-22T07:57:46.392Z,8.27
2023-03-22T08:00:17.251Z,6.10
2023-03-22T08:02:46.232Z,6.63
2023-03-22T08:05:14.595Z,5.45
2023-03-22T08:07:43.168Z,4.80
2023-03-22T08:10:12.027Z,5.60
2023-03-22T08:12:40.350Z,7.95
2023-03-22T08:15:10.251Z,7.85
2023-03-22T08:17:40.038Z,8.50
2023-03-22T08:20:10.008Z,8.05
2023-03-22T08:22:38.371Z,11.18
2023-03-22T08:25:07.397Z,5.03
2023-03-22T08:27:35.649Z,8.50
2023-03-22T08:30:05.667Z,5.88
2023-03-22T08:32:34.781Z,7.18
2023-03-22T08:35:06.420Z,5.60
2023-03-22T08:37:34.724Z,7.25
2023-03-22T08:40:06.525Z,5.18
2023-03-22T08:42:34.898Z,7.68
2023-03-22T08:45:03.372Z,6.47
2023-03-22T08:47:31.657Z,4.13
2023-03-22T08:49:59.974Z,7.97
2023-03-22T08:52:30.145Z,5.70
2023-03-22T08:54:58.487Z,5.45
2023-03-22T08:57:27.668Z,5.47
2023-03-22T08:59:57.597Z,6.35
2023-03-22T09:02:26.201Z,6.05
2023-03-22T09:04:54.892Z,4.82
2023-03-22T09:07:24.304Z,5.15
2023-03-22T09:09:53.952Z,6.65
2023-03-22T09:12:22.181Z,6.77
2023-03-22T09:14:50.564Z,4.80
2023-03-22T09:17:21.315Z,7.13
2023-03-22T09:19:55.664Z,4.55
2023-03-22T09:22:31.032Z,4.22
2023-03-22T09:25:00.704Z,4.80
2023-03-22T09:27:29.105Z,5.53
2023-03-22T09:29:57.560Z,3.78
2023-03-22T09:32:25.953Z,4.53
2023-03-22T09:34:54.394Z,5.82
2023-03-22T09:40:12.865Z,4.97
2023-03-22T09:42:42.984Z,5.50
2023-03-22T09:45:16.325Z,3.33
2023-03-22T09:47:46.733Z,4.47
2023-03-22T09:52:45.083Z,3.50
2023-03-22T09:55:21.044Z,4.55
2023-03-22T09:57:55.489Z,4.68
2023-03-22T10:00:29.226Z,3.95
2023-03-22T10:03:03.414Z,3.53
2023-03-22T10:05:37.177Z,5.68
2023-03-22T10:08:26.206Z,4.00
2023-03-22T10:10:55.884Z,3.50
2023-03-22T10:13:28.126Z,2.47
2023-03-22T10:15:59.183Z,4.38
2023-03-22T10:18:29.952Z,2.20
2023-03-22T10:21:01.540Z,3.28
2023-03-22T10:23:32.776Z,3.45
2023-03-22T10:26:04.156Z,2.55
2023-03-22T10:28:36.938Z,4.40
2023-03-22T10:31:06.038Z,3.65
2023-03-22T10:33:39.574Z,5.15
2023-03-22T10:36:13.778Z,5.75
2023-03-22T10:38:46.525Z,4.68
2023-03-22T10:41:18.563Z,3.40
2023-03-22T10:43:49.910Z,4.68
2023-03-22T10:46:21.146Z,5.45
2023-03-22T10:48:51.307Z,5.70
2023-03-22T10:51:25.895Z,4.28
2023-03-22T10:53:56.153Z,4.25
2023-03-22T10:56:26.205Z,3.53
2023-03-22T10:58:56.409Z,4.10
2023-03-22T11:01:29.989Z,3.13
2023-03-22T11:04:01.018Z,3.90
2023-03-22T11:06:32.911Z,3.60
2023-03-22T11:09:04.078Z,3.58
2023-03-22T11:11:49.074Z,3.78
2023-03-22T11:14:20.783Z,5.45
2023-03-22T11:16:53.968Z,3.80
2023-03-22T11:19:26.281Z,8.05
2023-03-22T11:21:55.583Z,3.03
2023-03-22T11:24:25.917Z,6.03
2023-03-22T11:27:06.852Z,3.10
2023-03-22T11:29:41.770Z,3.25
2023-03-22T11:32:23.148Z,3.65
2023-03-22T11:35:00.836Z,3.17
2023-03-22T11:37:29.436Z,3.47
2023-03-22T11:40:01.756Z,2.75
2023-03-22T11:42:31.467Z,6.57
2023-03-22T11:44:59.781Z,3.92
2023-03-22T11:47:31.778Z,5.18
2023-03-22T11:50:05.475Z,4.80
2023-03-22T11:52:33.893Z,3.75
2023-03-22T11:55:02.582Z,3.28
2023-03-22T11:57:33.034Z,5.97
2023-03-22T12:05:21.787Z,3.90
2023-03-22T12:07:53.445Z,6.90
2023-03-22T12:10:26.422Z,5.18
2023-03-22T12:12:59.642Z,3.65
2023-03-22T12:15:31.083Z,5.30
2023-03-22T12:18:06.016Z,4.03
2023-03-22T12:20:41.618Z,3.60
2023-03-22T12:23:15.425Z,3.17
2023-03-22T12:25:47.905Z,4.03
2023-03-22T12:28:19.916Z,4.05
2023-03-22T12:30:50.612Z,3.90
2023-03-22T12:33:21.800Z,4.28
2023-03-22T12:35:52.624Z,3.35
2023-03-22T12:38:27.968Z,3.97
2023-03-22T12:40:59.093Z,4.50
2023-03-22T12:43:39.379Z,5.78
2023-03-22T12:46:11.718Z,3.67
2023-03-22T12:48:44.594Z,3.70
2023-03-22T12:51:15.660Z,3.08
2023-03-22T12:53:46.288Z,4.32
2023-03-22T12:56:16.706Z,3.78
2023-03-22T13:01:23.080Z,4.28
2023-03-22T13:03:54.662Z,2.67
2023-03-22T13:06:34.972Z,1.92
2023-03-22T13:09:21.849Z,2.70
2023-03-22T13:12:28.361Z,1.05
2023-03-22T13:15:00.573Z,1.55
2023-03-22T13:17:46.940Z,1.73
2023-03-22T13:20:38.462Z,2.47
2023-03-22T13:23:27.162Z,3.00
2023-03-22T13:26:01.614Z,1.92
2023-03-22T13:28:30.966Z,2.65
2023-03-22T13:31:01.647Z,2.35
2023-03-22T13:33:31.330Z,2.53
2023-03-22T13:36:01.166Z,4.05
2023-03-22T13:38:31.382Z,2.00
2023-03-22T13:41:02.917Z,2.03
2023-03-22T13:43:34.277Z,1.85
2023-03-22T13:46:51.326Z,4.40
2023-03-22T13:49:56.009Z,1.65
2023-03-22T13:52:29.307Z,2.42
2023-03-22T13:54:59.421Z,2.83
2023-03-22T13:57:46.793Z,2.65
2023-03-22T14:00:34.301Z,2.10
2023-03-22T14:03:04.661Z,2.88
2023-03-22T14:08:04.305Z,1.60
2023-03-22T14:10:38.801Z,1.38
2023-03-22T14:13:15.874Z,4.28
2023-03-22T14:15:48.153Z,1.92
2023-03-22T14:18:19.284Z,1.55
2023-03-22T14:20:49.436Z,0.63
